This is the latest recevied weather packets stored in our database for station/object VE3GSI. If no packets are shown the sender has not sent any weather packets the latest 10 day(s).
| Time | Temp. | Humidity | Pressure | Rain* | Wind** | Luminosity | Snow |
|---|---|---|---|---|---|---|---|
| 1777950964 | 13.33° C | 63% | 999.8 hPa | 0 mm | - | - | - |
| 1777949766 | 13.33° C | 61% | 999.9 hPa | 0 mm | - | - | - |
| 1777945564 | 13.33° C | 63% | 1000.1 hPa | 0 mm | - | - | - |
| 1777944364 | 13.89° C | 61% | 1000.1 hPa | 0 mm | - | - | - |
| 1777939564 | 17.78° C | 52% | 1000.3 hPa | 0 mm | - | - | - |
| 1777933565 | 20° C | 49% | 1000.1 hPa | 0 mm | - | - | - |
| 1777932965 | 20.56° C | 49% | 1000.2 hPa | 0 mm | - | - | - |
| 1777923365 | 20° C | 50% | 1001.2 hPa | 0 mm | - | - | - |
| 1777921565 | 20° C | 51% | 1001.8 hPa | 0 mm | - | - | - |
| 1777914365 | 19.44° C | 53% | 1002.5 hPa | 0 mm | - | - | - |
| 1777911965 | 18.33° C | 59% | 1002.8 hPa | 0 mm | - | - | - |
| 1777908365 | 17.22° C | 58% | 1003.2 hPa | 0 mm | - | - | - |
| 1777905965 | 16.67° C | 62% | 1003.2 hPa | 0 mm | - | - | - |
| 1777901765 | 14.44° C | 66% | 1003.6 hPa | 0 mm | - | - | - |
| 1777899365 | 13.33° C | 71% | 1003.7 hPa | 0 mm | - | - | - |
| 1777898165 | 12.78° C | 72% | 1003.9 hPa | 0 mm | - | - | - |
| 1777893964 | 8.89° C | 86% | 1003.9 hPa | 0.25 mm | - | - | - |
| 1777893365 | 8.89° C | 85% | 1003.8 hPa | 0.25 mm | - | - | - |
| 1777886164 | 8.33° C | 85% | 1003.6 hPa | 0 mm | - | - | - |
| 1777883164 | 7.78° C | 89% | 1003.6 hPa | 0 mm | - | - | - |
| 1777879564 | 7.22° C | 90% | 1003.6 hPa | 0 mm | - | - | - |
| 1777875365 | 7.22° C | 95% | 1004.4 hPa | 0 mm | - | - | - |
| 1777869964 | 7.22° C | 91% | 1005.5 hPa | 0.25 mm | - | - | - |
| 1777867564 | 7.78° C | 88% | 1005.6 hPa | 0 mm | - | - | - |
| 1777865164 | 7.78° C | 82% | 1005.9 hPa | 0 mm | - | - | - |
* Rain latest hour (hover to see other rain measurements)
** Current wind speed in m/s (hover to see current wind gust speed)